Portada
METAR-TAF:

METAR-TAF

Aeroports :

Souillac

Briva la Galharda, França

latitud: 45-02-28N, longitud: 001-28-59E, altitud: 311 m

Observació

L'informe es va fer fa 12 minuts, a les 16:00 UTC
Vent 3 kt del Sud/Sud-Est
Temperatura 6°C
Humitat 75%
Pressió 1024 hPa
Visibilitat 10 km o més
sense núvols per sota de 1500 mi sense presència de cumulonimbus.

METAR: LFSL 101600Z AUTO 15003KT CAVOK 06/02 Q1024 NOSIG

Hora: 17:12 (16:12 UTC)

Pronòstic

L'informe es va fer fa 2 hores i 12 minuts, a les 14:00 UTC
Pronòstic vàlid del 10 a les 15 UTC al 10 a les 24 UTC
Vent 3 kt amb direcció variable
Visibilitat 10 km o més
sense núvols per sota de 1500 mi sense presència de cumulonimbus.

TAF: LFSL 101400Z 1015/1024 VRB03KT CAVOK

Observacions i pronòstics meteorològics de més de 4000 aeroports (METAR i TAF).

Les estacions disponibles són els punts grocs i vermells al mapa.

Posi el ratolí al punt desitjat per veure el nom de l'estació.

Feu clic per veure les observacions i els pronòstics meteorològics.

Per canviar el mapa: feu clic els botons verds amb una creu de color negre per apropar; al botó verd amb un guió per allunyar la imatge; o en les fletxes verdes per a mapes adjacents.


METAR-TAF: